Time;durP1;ratioP1;P1;durP2;ratioP2;P2;SDS_P1;SDS_P2;PMS_P1;PMS_P2;Temp;Humidity;BMP_temperature;BMP_pressure;BME280_temperature;BME280_humidity;BME280_pressure;Samples;Min_cycle;Max_cycle;Signal;HPM_P1;HPM_P2
2021/08/15 00:02:09;;;;;;;10.83;7.43;;;;;;;21.46;75.86;96859.41;128042;1090;24382;-85
2021/08/15 00:04:40;;;;;;;14.73;8.75;;;;;;;21.44;75.84;96851.66;128046;1089;23908;-85
2021/08/15 00:07:12;;;;;;;10.90;7.90;;;;;;;21.45;76.20;96858.63;127980;1090;24514;-85
2021/08/15 00:09:43;;;;;;;11.08;8.15;;;;;;;21.45;75.70;96857.84;128003;1090;26744;-85
2021/08/15 00:12:14;;;;;;;11.50;8.25;;;;;;;21.45;75.70;96855.92;127965;1090;26332;-85
2021/08/15 00:14:46;;;;;;;11.25;8.38;;;;;;;21.41;75.82;96852.34;127978;1089;24051;-85
2021/08/15 00:17:17;;;;;;;10.70;8.23;;;;;;;21.40;76.07;96850.00;128036;1090;26251;-85
2021/08/15 00:19:48;;;;;;;12.53;7.75;;;;;;;21.37;75.62;96845.27;127981;1090;23707;-85
2021/08/15 00:22:19;;;;;;;11.80;8.40;;;;;;;21.34;75.82;96850.22;127962;1090;25504;-85
2021/08/15 00:24:51;;;;;;;11.65;8.58;;;;;;;21.32;75.95;96849.78;127971;1090;27057;-85
2021/08/15 00:27:22;;;;;;;11.33;8.40;;;;;;;21.29;75.89;96849.69;127993;1090;25238;-85
2021/08/15 00:29:54;;;;;;;11.60;8.58;;;;;;;21.25;75.69;96849.56;128018;1089;49946;-85
2021/08/15 00:32:25;;;;;;;11.25;8.65;;;;;;;21.21;75.98;96843.25;127989;1090;25524;-85
2021/08/15 00:34:56;;;;;;;12.63;8.67;;;;;;;21.18;76.10;96849.34;127968;1090;24096;-85
2021/08/15 00:37:28;;;;;;;12.20;8.47;;;;;;;21.19;76.05;96845.52;127962;1090;72406;-85
2021/08/15 00:39:59;;;;;;;13.35;7.58;;;;;;;21.18;75.93;96841.25;127986;1090;22816;-85
2021/08/15 00:42:31;;;;;;;10.60;8.38;;;;;;;21.21;75.88;96847.87;127998;1090;24190;-85
2021/08/15 00:45:03;;;;;;;11.93;8.08;;;;;;;21.19;76.17;96850.13;127979;1090;28426;-85
2021/08/15 00:47:35;;;;;;;11.63;8.28;;;;;;;21.15;75.88;96841.94;127981;1089;24444;-85
2021/08/15 00:50:08;;;;;;;14.05;8.28;;;;;;;21.14;75.94;96845.76;128011;1089;23993;-84
2021/08/15 00:52:39;;;;;;;11.55;8.40;;;;;;;21.14;75.77;96853.06;128070;1090;25505;-85
2021/08/15 00:55:14;;;;;;;12.13;8.38;;;;;;;21.10;76.07;96839.45;128004;1090;26498;-85
2021/08/15 00:57:47;;;;;;;13.45;9.30;;;;;;;21.11;76.27;96848.33;127977;1090;23668;-85
2021/08/15 01:00:19;;;;;;;12.15;8.55;;;;;;;21.08;76.01;96847.11;127995;1090;27177;-85
2021/08/15 01:02:51;;;;;;;11.15;8.23;;;;;;;21.03;76.26;96837.34;127998;1089;24387;-85
2021/08/15 01:05:23;;;;;;;10.33;8.25;;;;;;;21.03;76.32;96842.74;128002;1090;23225;-85
2021/08/15 01:07:54;;;;;;;11.30;7.85;;;;;;;21.01;76.38;96842.30;127947;1089;25542;-85
2021/08/15 01:10:26;;;;;;;12.53;8.58;;;;;;;20.98;76.41;96844.89;127967;1090;30021;-85
2021/08/15 01:12:57;;;;;;;11.23;7.95;;;;;;;20.96;76.55;96837.13;128007;1090;23126;-85
2021/08/15 01:15:28;;;;;;;11.63;8.60;;;;;;;20.94;76.83;96838.59;127973;1090;27253;-85
2021/08/15 01:18:00;;;;;;;10.60;8.40;;;;;;;20.96;76.50;96836.34;127979;1090;28284;-85
2021/08/15 01:20:31;;;;;;;12.18;8.00;;;;;;;20.96;76.78;96839.81;127944;1090;61793;-85
2021/08/15 01:23:02;;;;;;;12.18;8.83;;;;;;;20.96;76.69;96842.52;127981;1090;74420;-85
2021/08/15 01:25:34;;;;;;;9.93;8.10;;;;;;;20.93;76.63;96831.63;127991;1090;22977;-84
2021/08/15 01:28:19;;;;;;;10.85;7.78;;;;;;;20.92;76.63;96835.45;127930;1090;27141;-83
2021/08/15 01:30:51;;;;;;;12.38;8.33;;;;;;;20.92;76.63;96843.54;127984;1090;30002;-84
2021/08/15 01:33:31;;;;;;;10.38;7.65;;;;;;;20.94;76.70;96838.59;127996;1090;22982;-83
2021/08/15 01:36:04;;;;;;;11.30;8.23;;;;;;;20.94;77.06;96831.29;127988;1090;23552;-84
2021/08/15 01:38:38;;;;;;;11.25;8.10;;;;;;;20.95;76.55;96845.55;127977;1090;22797;-84
2021/08/15 01:41:11;;;;;;;11.63;8.45;;;;;;;20.96;76.90;96839.03;128040;1090;26970;-84
2021/08/15 01:43:53;;;;;;;13.13;8.88;;;;;;;20.96;76.54;96842.52;127986;1090;41314;-84
2021/08/15 01:46:27;;;;;;;9.95;7.85;;;;;;;20.97;76.19;96835.21;127978;1090;26859;-84
2021/08/15 01:48:59;;;;;;;13.93;8.43;;;;;;;20.98;76.35;96839.50;128004;1090;26713;-84
2021/08/15 01:51:31;;;;;;;12.05;8.60;;;;;;;20.99;76.30;96841.86;127961;1090;23551;-83
2021/08/15 01:54:04;;;;;;;10.90;8.08;;;;;;;20.98;76.18;96842.98;128008;1089;23812;-83
2021/08/15 01:56:35;;;;;;;9.98;7.80;;;;;;;20.98;76.09;96829.50;127978;1090;25516;-84
2021/08/15 01:59:07;;;;;;;9.35;7.63;;;;;;;21.02;76.12;96837.69;128075;1090;23063;-84
2021/08/15 02:01:38;;;;;;;10.77;7.57;;;;;;;21.01;75.82;96836.91;128049;1090;24463;-84
2021/08/15 02:04:09;;;;;;;11.78;8.78;;;;;;;20.97;76.04;96833.33;128050;1088;22800;-84
2021/08/15 02:06:40;;;;;;;13.33;8.33;;;;;;;20.95;75.95;96835.55;128034;1090;26399;-85
2021/08/15 02:09:12;;;;;;;13.48;8.03;;;;;;;20.97;75.82;96835.21;127988;1090;24300;-85
2021/08/15 02:11:43;;;;;;;10.90;7.83;;;;;;;20.98;75.73;96829.50;128004;1088;23245;-83
2021/08/15 02:14:14;;;;;;;10.40;8.43;;;;;;;20.97;75.60;96822.55;127961;1088;26319;-84
2021/08/15 02:16:45;;;;;;;10.08;7.75;;;;;;;20.96;75.75;96820.16;127964;1090;23738;-84
2021/08/15 02:19:17;;;;;;;10.28;8.23;;;;;;;20.97;75.88;96827.13;127995;1090;25500;-84
2021/08/15 02:21:48;;;;;;;12.00;8.55;;;;;;;20.95;75.85;96832.08;127963;1090;29208;-86
2021/08/15 02:24:19;;;;;;;9.87;7.90;;;;;;;20.96;75.69;96828.25;128002;1089;24180;-84
2021/08/15 02:26:50;;;;;;;10.43;7.15;;;;;;;20.96;75.71;96825.55;127983;1090;27164;-84
2021/08/15 02:29:22;;;;;;;10.70;8.18;;;;;;;20.96;75.62;96820.16;127996;1090;26277;-85
2021/08/15 02:31:53;;;;;;;10.53;8.55;;;;;;;20.93;75.87;96823.55;127993;1090;27658;-84
2021/08/15 02:34:26;;;;;;;10.35;8.33;;;;;;;20.89;75.76;96815.36;127954;1090;46910;-84
2021/08/15 02:36:58;;;;;;;11.03;8.18;;;;;;;20.88;75.74;96823.79;127962;1090;27809;-84
2021/08/15 02:39:29;;;;;;;11.10;8.20;;;;;;;20.88;75.70;96813.02;127982;1090;25742;-85
2021/08/15 02:42:00;;;;;;;10.43;8.13;;;;;;;20.89;75.94;96819.97;127931;1090;25445;-84
2021/08/15 02:44:31;;;;;;;9.00;7.23;;;;;;;20.88;75.49;96807.63;127981;1089;22872;-84
2021/08/15 02:47:03;;;;;;;12.17;8.07;;;;;;;20.87;75.76;96811.44;127961;1089;43515;-84
2021/08/15 02:49:34;;;;;;;10.25;8.08;;;;;;;20.85;75.78;96811.00;127952;1090;23720;-84
2021/08/15 02:52:06;;;;;;;10.73;8.00;;;;;;;20.83;75.64;96811.34;128000;1090;23437;-85
2021/08/15 02:54:37;;;;;;;11.88;7.73;;;;;;;20.81;75.75;96808.17;128055;1089;28037;-83
2021/08/15 02:57:09;;;;;;;12.03;8.28;;;;;;;20.79;75.81;96804.25;128060;1090;24179;-84
2021/08/15 02:59:40;;;;;;;11.03;8.20;;;;;;;20.77;75.91;96804.59;128067;1090;26258;-84
2021/08/15 03:02:14;;;;;;;11.30;7.93;;;;;;;20.77;75.86;96811.89;127962;1090;23509;-84
2021/08/15 03:04:46;;;;;;;10.38;8.18;;;;;;;20.78;75.87;96802.69;127971;1090;28720;-83
2021/08/15 03:07:19;;;;;;;10.25;8.10;;;;;;;20.75;76.09;96804.16;127971;1089;23544;-85
2021/08/15 03:09:50;;;;;;;11.05;8.30;;;;;;;20.73;76.30;96799.11;127994;1090;23591;-85
2021/08/15 03:12:22;;;;;;;9.98;8.00;;;;;;;20.71;76.13;96804.05;127949;1090;27114;-84
2021/08/15 03:14:53;;;;;;;11.03;7.98;;;;;;;20.65;76.11;96802.70;127983;1090;23044;-85
2021/08/15 03:17:24;;;;;;;11.95;8.03;;;;;;;20.63;76.05;96801.47;127997;1090;26289;-84
2021/08/15 03:19:55;;;;;;;10.33;8.35;;;;;;;20.61;76.11;96796.42;127962;1090;42904;-83
2021/08/15 03:22:27;;;;;;;10.23;8.03;;;;;;;20.60;76.19;96799.45;127979;1090;29743;-84
2021/08/15 03:24:59;;;;;;;10.75;7.78;;;;;;;20.57;76.11;96802.84;127980;1090;28351;-84
2021/08/15 03:27:30;;;;;;;10.95;7.98;;;;;;;20.56;76.30;96798.57;128016;1090;26670;-85
2021/08/15 03:30:01;;;;;;;10.28;7.65;;;;;;;20.55;76.13;96800.48;127984;1090;24422;-84
2021/08/15 03:32:33;;;;;;;9.30;7.63;;;;;;;20.58;76.57;96788.24;127988;1090;26450;-85
2021/08/15 03:35:04;;;;;;;11.33;8.40;;;;;;;20.57;76.47;96792.84;127984;1090;24145;-85
2021/08/15 03:37:35;;;;;;;11.85;7.90;;;;;;;20.59;76.41;96790.59;127955;1090;79954;-85
2021/08/15 03:40:09;;;;;;;11.73;8.08;;;;;;;20.61;76.15;96787.56;128038;1090;25173;-84
2021/08/15 03:42:40;;;;;;;9.83;7.93;;;;;;;20.64;76.35;96793.05;128056;1090;23268;-84
2021/08/15 03:45:12;;;;;;;12.00;8.50;;;;;;;20.65;76.26;96793.83;128002;1090;29017;-82
2021/08/15 03:47:44;;;;;;;12.83;8.28;;;;;;;20.66;76.07;96796.19;127959;1090;57599;-84
2021/08/15 03:50:15;;;;;;;11.33;8.08;;;;;;;20.67;76.21;96792.36;127962;1090;25007;-84
2021/08/15 03:52:46;;;;;;;10.45;8.28;;;;;;;20.72;75.90;96794.06;128003;1090;23224;-84
2021/08/15 03:55:17;;;;;;;12.28;8.28;;;;;;;20.75;76.14;96790.69;127948;1090;23129;-85
2021/08/15 03:57:49;;;;;;;10.93;7.75;;;;;;;20.81;75.87;96791.23;127999;1090;26323;-84
2021/08/15 04:00:20;;;;;;;12.20;8.53;;;;;;;20.89;76.01;96793.02;127981;1090;24382;-84
2021/08/15 04:02:52;;;;;;;11.65;7.88;;;;;;;20.97;75.50;96790.20;127994;1090;30988;-85
2021/08/15 04:05:23;;;;;;;8.85;7.18;;;;;;;21.07;75.62;96791.62;127986;1090;24022;-85
2021/08/15 04:07:54;;;;;;;9.53;7.35;;;;;;;21.15;75.38;96793.41;127985;1090;27996;-85
2021/08/15 04:10:25;;;;;;;9.90;7.43;;;;;;;21.22;75.01;96790.11;127986;1088;26756;-85
2021/08/15 04:12:57;;;;;;;11.50;7.23;;;;;;;21.28;75.10;96783.39;127984;1090;28117;-84
2021/08/15 04:15:28;;;;;;;10.75;8.05;;;;;;;21.37;74.90;96785.92;127942;1090;23867;-85
2021/08/15 04:18:00;;;;;;;10.30;8.18;;;;;;;21.46;74.72;96790.05;127986;1090;25145;-84
2021/08/15 04:20:31;;;;;;;10.15;7.25;;;;;;;21.54;74.24;96791.05;127999;1090;25037;-84
2021/08/15 04:23:03;;;;;;;9.48;7.30;;;;;;;21.64;74.15;96779.73;127983;1090;33857;-84
2021/08/15 04:25:34;;;;;;;9.55;7.58;;;;;;;21.74;74.49;96789.25;127992;1090;28939;-84
2021/08/15 04:28:06;;;;;;;9.03;7.38;;;;;;;21.84;73.74;96783.35;128009;1090;27615;-84
2021/08/15 04:30:37;;;;;;;11.40;7.75;;;;;;;22.02;73.93;96789.19;127975;1090;29019;-85
2021/08/15 04:33:08;;;;;;;11.78;7.78;;;;;;;22.23;73.26;96789.73;128041;1090;25030;-83
2021/08/15 04:35:40;;;;;;;11.05;7.60;;;;;;;22.47;73.47;96786.06;128054;1090;23312;-85
2021/08/15 04:38:11;;;;;;;10.78;7.48;;;;;;;23.21;73.14;96783.45;128073;1090;29325;-85
2021/08/15 04:40:42;;;;;;;11.25;7.88;;;;;;;23.65;70.75;96783.97;127980;1090;23671;-84
2021/08/15 04:43:14;;;;;;;13.65;7.25;;;;;;;23.95;70.71;96779.48;127995;1090;26127;-84
2021/08/15 04:45:46;;;;;;;9.95;7.80;;;;;;;24.85;69.91;96777.02;127997;1090;28744;-83
2021/08/15 04:48:18;;;;;;;9.08;7.33;;;;;;;26.03;68.68;96771.03;128012;1090;23453;-85
2021/08/15 04:50:49;;;;;;;9.98;6.90;;;;;;;27.18;65.76;96769.92;127983;1090;38305;-84
2021/08/15 04:53:21;;;;;;;8.48;6.80;;;;;;;28.07;63.88;96764.72;127974;1090;26241;-85
2021/08/15 04:55:52;;;;;;;9.65;7.38;;;;;;;28.55;61.02;96776.02;128026;1090;23182;-85
2021/08/15 04:58:23;;;;;;;9.23;7.00;;;;;;;29.16;59.09;96773.19;127994;1090;24445;-85
2021/08/15 05:00:54;;;;;;;10.00;6.98;;;;;;;29.90;57.96;96769.32;127951;1090;24141;-85
2021/08/15 05:03:26;;;;;;;8.93;6.38;;;;;;;30.53;55.42;96780.95;127982;1090;26501;-84
2021/08/15 05:05:57;;;;;;;8.85;6.55;;;;;;;31.02;55.35;96776.98;127958;1090;27206;-84
2021/08/15 05:08:28;;;;;;;7.68;6.70;;;;;;;31.49;51.91;96765.48;127975;1090;27173;-84
2021/08/15 05:10:59;;;;;;;10.65;6.85;;;;;;;31.73;52.14;96760.86;127986;1090;24763;-84
2021/08/15 05:13:31;;;;;;;7.43;5.90;;;;;;;32.12;50.49;96760.30;127978;1090;40939;-85
2021/08/15 05:16:02;;;;;;;8.73;6.48;;;;;;;32.49;50.06;96762.05;127964;1090;35501;-85
2021/08/15 05:18:34;;;;;;;8.30;6.58;;;;;;;32.65;48.51;96770.39;127993;1090;31369;-85
2021/08/15 05:21:05;;;;;;;7.85;6.05;;;;;;;33.06;47.24;96761.03;127974;1090;22819;-85
2021/08/15 05:23:36;;;;;;;9.38;6.48;;;;;;;33.13;46.32;96762.88;127987;1090;23609;-84
2021/08/15 05:26:07;;;;;;;7.95;5.85;;;;;;;33.36;46.18;96757.31;128037;1090;23836;-84
2021/08/15 05:28:39;;;;;;;9.25;6.75;;;;;;;33.74;45.65;96759.65;128059;1090;24069;-85
2021/08/15 05:31:10;;;;;;;7.23;6.08;;;;;;;34.51;45.61;96761.80;128018;1089;23380;-84
2021/08/15 05:33:41;;;;;;;9.03;6.63;;;;;;;35.37;45.05;96766.59;127989;1090;38323;-83
2021/08/15 05:36:13;;;;;;;9.30;6.30;;;;;;;36.22;44.70;96763.22;127962;1090;26648;-84
2021/08/15 05:38:44;;;;;;;7.35;5.88;;;;;;;37.24;43.73;96764.90;128012;1090;24024;-84
2021/08/15 05:41:15;;;;;;;6.83;5.95;;;;;;;37.93;42.23;96754.39;128010;1090;26302;-83
2021/08/15 05:43:47;;;;;;;7.38;5.60;;;;;;;38.34;39.98;96759.92;127990;1090;27217;-85
2021/08/15 05:46:18;;;;;;;7.70;6.08;;;;;;;38.45;37.41;96765.80;127947;1090;28634;-85
2021/08/15 05:48:49;;;;;;;6.85;5.70;;;;;;;38.16;38.08;96761.39;128007;1090;24299;-84
2021/08/15 05:51:20;;;;;;;7.65;5.93;;;;;;;38.19;35.26;96763.27;127983;1089;52330;-85
2021/08/15 05:53:52;;;;;;;9.88;5.93;;;;;;;37.58;36.96;96753.73;128013;1090;24398;-85
2021/08/15 05:56:23;;;;;;;7.27;5.67;;;;;;;37.36;34.96;96758.55;127961;1090;24878;-85
2021/08/15 05:58:55;;;;;;;6.88;5.90;;;;;;;36.94;35.84;96750.56;127979;1090;23510;-85
2021/08/15 06:01:26;;;;;;;7.63;5.68;;;;;;;36.99;36.49;96747.22;127968;1090;27993;-86
2021/08/15 06:03:57;;;;;;;6.28;5.50;;;;;;;37.15;35.04;96752.55;128011;1090;24362;-85
2021/08/15 06:06:29;;;;;;;6.78;5.38;;;;;;;36.80;34.54;96751.84;127992;1090;25748;-85
2021/08/15 06:09:00;;;;;;;8.38;6.00;;;;;;;36.75;36.64;96748.86;127986;1090;24581;-85
2021/08/15 06:11:31;;;;;;;6.65;5.95;;;;;;;37.09;35.00;96753.59;127926;1090;28807;-84
2021/08/15 06:14:03;;;;;;;8.93;6.05;;;;;;;37.35;35.29;96746.72;127960;1090;26559;-84
2021/08/15 06:16:34;;;;;;;8.38;5.98;;;;;;;37.17;34.88;96745.82;128009;1088;25000;-85
2021/08/15 06:19:06;;;;;;;6.80;6.03;;;;;;;37.26;35.19;96749.39;127995;1089;23897;-85
2021/08/15 06:21:37;;;;;;;8.90;6.10;;;;;;;37.33;34.56;96748.41;127990;1090;24305;-84
2021/08/15 06:24:08;;;;;;;7.18;5.78;;;;;;;37.48;34.79;96743.88;128025;1090;23533;-85
2021/08/15 06:26:40;;;;;;;8.15;5.73;;;;;;;38.12;34.87;96743.37;128053;1090;25887;-85
2021/08/15 06:29:11;;;;;;;7.08;5.65;;;;;;;38.55;33.74;96745.92;128029;1090;26948;-84
2021/08/15 06:31:42;;;;;;;7.40;5.58;;;;;;;39.11;33.69;96749.52;127976;1090;35278;-84
2021/08/15 06:34:14;;;;;;;6.13;5.35;;;;;;;39.70;33.53;96748.02;128028;1090;27644;-86
2021/08/15 06:36:46;;;;;;;6.23;5.15;;;;;;;40.20;31.69;96750.42;128005;1090;31006;-85
2021/08/15 06:39:18;;;;;;;7.53;6.05;;;;;;;40.59;32.67;96746.48;127988;1090;27100;-84
2021/08/15 06:41:49;;;;;;;6.10;5.50;;;;;;;41.00;31.66;96748.81;127963;1090;30298;-86
2021/08/15 06:44:21;;;;;;;6.30;5.13;;;;;;;41.16;30.83;96745.56;127961;1090;28275;-86
2021/08/15 06:46:52;;;;;;;6.53;5.83;;;;;;;41.33;29.78;96743.09;127964;1089;27144;-86
2021/08/15 06:49:24;;;;;;;7.95;5.28;;;;;;;41.16;30.53;96749.11;127941;1090;31157;-84
2021/08/15 06:51:55;;;;;;;7.95;4.90;;;;;;;41.79;31.16;96746.14;128058;1089;27327;-84
2021/08/15 06:54:28;;;;;;;7.58;5.63;;;;;;;42.20;30.48;96747.02;128025;1090;32007;-84
2021/08/15 06:57:00;;;;;;;6.25;5.23;;;;;;;42.54;28.84;96747.50;128045;1090;68969;-84
2021/08/15 06:59:31;;;;;;;5.80;4.70;;;;;;;42.68;29.87;96746.66;128056;1090;28150;-84
2021/08/15 07:02:02;;;;;;;6.00;4.88;;;;;;;43.27;29.10;96740.70;128076;1090;25256;-84
2021/08/15 07:04:33;;;;;;;5.90;4.98;;;;;;;42.91;28.13;96739.31;128071;1090;42646;-85
2021/08/15 07:07:06;;;;;;;5.38;4.88;;;;;;;43.19;28.18;96745.94;128049;1090;58660;-84
2021/08/15 07:09:38;;;;;;;5.88;4.73;;;;;;;43.77;28.22;96743.17;128056;1090;42943;-86
2021/08/15 07:12:09;;;;;;;5.90;5.33;;;;;;;44.24;27.74;96738.94;128162;1090;30601;-83
2021/08/15 07:14:42;;;;;;;5.43;4.75;;;;;;;45.19;27.58;96739.30;128177;1090;22932;-84
2021/08/15 07:17:13;;;;;;;5.18;4.68;;;;;;;45.90;26.54;96727.11;128100;1089;27999;-83
2021/08/15 07:19:44;;;;;;;6.83;5.25;;;;;;;45.96;26.60;96731.42;128121;1090;27456;-83
2021/08/15 07:22:16;;;;;;;5.28;4.58;;;;;;;46.35;25.32;96728.53;128091;1089;30781;-84
2021/08/15 07:24:47;;;;;;;10.30;5.00;;;;;;;46.42;25.63;96728.02;128033;1088;30269;-82
2021/08/15 07:27:19;;;;;;;5.80;5.03;;;;;;;46.81;24.50;96726.33;127929;1090;26746;-82
2021/08/15 07:29:59;;;;;;;6.18;4.60;;;;;;;46.77;24.07;96729.39;127997;1090;31321;-82
2021/08/15 07:32:30;;;;;;;5.75;5.00;;;;;;;46.50;24.24;96722.64;128003;1089;25444;-83
2021/08/15 07:35:02;;;;;;;5.43;4.88;;;;;;;46.49;23.94;96725.96;127952;1088;26484;-83
2021/08/15 07:37:33;;;;;;;6.18;4.75;;;;;;;46.01;23.77;96722.22;127961;1090;25887;-83
2021/08/15 07:40:06;;;;;;;7.07;4.57;;;;;;;45.54;24.01;96724.82;127866;1090;29958;-85
2021/08/15 07:42:38;;;;;;;5.88;4.93;;;;;;;45.26;23.58;96722.02;128118;1090;26507;-85
2021/08/15 07:45:11;;;;;;;5.43;4.88;;;;;;;44.76;23.32;96721.09;128095;1090;24528;-86
2021/08/15 07:47:42;;;;;;;5.75;4.68;;;;;;;44.59;24.49;96730.20;128053;1090;23227;-85
2021/08/15 07:50:14;;;;;;;5.50;4.20;;;;;;;44.69;24.94;96720.33;128206;1090;35051;-86
2021/08/15 07:52:45;;;;;;;5.00;4.50;;;;;;;44.80;23.83;96721.64;128232;1090;25985;-85
2021/08/15 07:55:17;;;;;;;5.80;5.05;;;;;;;44.81;25.09;96721.13;128280;1090;23649;-85
2021/08/15 07:57:48;;;;;;;7.18;4.80;;;;;;;45.69;24.54;96713.38;128236;1090;25761;-85
2021/08/15 08:00:20;;;;;;;5.45;4.95;;;;;;;45.96;23.35;96719.45;128221;1090;29481;-85
2021/08/15 08:02:51;;;;;;;6.13;5.20;;;;;;;45.35;23.64;96717.45;128145;1090;77493;-85
2021/08/15 08:05:22;;;;;;;5.88;4.58;;;;;;;45.47;24.08;96710.55;128091;1090;27681;-85
2021/08/15 08:07:53;;;;;;;6.25;5.08;;;;;;;45.80;23.75;96718.97;127967;1090;27164;-85
2021/08/15 08:10:25;;;;;;;7.48;5.05;;;;;;;46.04;23.87;96717.69;128012;1088;23825;-86
2021/08/15 08:12:56;;;;;;;6.08;5.38;;;;;;;45.59;23.69;96714.88;127996;1090;44364;-85
2021/08/15 08:15:27;;;;;;;7.93;5.43;;;;;;;45.22;24.77;96710.28;128078;1090;26741;-84
2021/08/15 08:17:59;;;;;;;6.40;5.70;;;;;;;45.21;24.49;96708.77;128014;1089;79961;-85
2021/08/15 08:20:32;;;;;;;7.13;5.43;;;;;;;45.15;24.67;96716.38;128012;1090;25605;-86
2021/08/15 08:23:04;;;;;;;8.25;6.18;;;;;;;45.29;24.47;96706.23;128013;1090;30903;-85
2021/08/15 08:25:36;;;;;;;9.80;5.63;;;;;;;45.23;24.58;96706.22;128008;1090;25668;-85
2021/08/15 08:28:09;;;;;;;6.18;5.40;;;;;;;44.52;24.41;96705.53;128060;1090;26969;-85
2021/08/15 08:30:41;;;;;;;10.95;6.18;;;;;;;42.57;24.80;96693.55;128021;1090;25491;-84
2021/08/15 08:33:12;;;;;;;11.08;5.93;;;;;;;40.85;27.54;96693.18;127967;1090;27010;-84
2021/08/15 08:35:43;;;;;;;6.53;5.70;;;;;;;40.49;28.15;96689.43;127967;1090;26456;-84
2021/08/15 08:38:15;;;;;;;8.23;5.88;;;;;;;39.99;28.55;96699.48;128001;1090;24384;-85
2021/08/15 08:40:50;;;;;;;9.38;6.33;;;;;;;38.52;29.73;96688.67;127973;1090;25831;-84
2021/08/15 08:43:23;;;;;;;10.80;6.38;;;;;;;38.23;30.87;96689.12;127965;1090;26996;-85
2021/08/15 08:45:56;;;;;;;9.05;5.55;;;;;;;38.20;30.87;96684.50;127976;1090;27970;-84
2021/08/15 08:48:29;;;;;;;9.38;5.78;;;;;;;38.05;31.41;96679.99;128002;1089;25178;-84
2021/08/15 08:51:01;;;;;;;9.03;6.03;;;;;;;37.91;31.84;96676.58;128007;1090;24423;-85
2021/08/15 08:53:34;;;;;;;7.05;5.50;;;;;;;37.77;31.96;96665.32;127996;1090;44784;-84
2021/08/15 08:56:06;;;;;;;9.23;6.03;;;;;;;37.42;31.81;96660.70;127958;1090;23156;-85
2021/08/15 08:58:37;;;;;;;12.40;6.33;;;;;;;37.11;32.97;96665.44;128061;1090;23612;-85
2021/08/15 09:01:11;;;;;;;8.58;6.20;;;;;;;36.87;33.66;96667.91;128052;1090;27909;-84
2021/08/15 09:03:44;;;;;;;8.00;5.67;;;;;;;36.40;33.69;96662.47;128007;1090;24599;-84
2021/08/15 09:06:23;;;;;;;9.50;5.48;;;;;;;35.81;33.81;96655.73;127930;1090;26988;-84
2021/08/15 09:08:55;;;;;;;10.70;5.95;;;;;;;35.28;35.17;96647.88;127990;1090;24549;-84
2021/08/15 09:11:29;;;;;;;8.85;6.05;;;;;;;34.74;35.40;96645.11;127948;1090;28739;-85
2021/08/15 09:14:07;;;;;;;7.40;5.55;;;;;;;34.61;35.43;96645.08;127982;1090;25989;-85
2021/08/15 09:16:59;;;;;;;9.57;5.50;;;;;;;34.37;36.45;96644.57;128050;1089;29784;-85
2021/08/15 09:19:37;;;;;;;7.78;5.43;;;;;;;34.31;37.00;96639.98;127989;1090;31898;-83
2021/08/15 09:22:25;;;;;;;7.75;5.70;;;;;;;34.24;36.94;96630.72;128100;1090;27320;-83
2021/08/15 09:25:00;;;;;;;8.78;5.78;;;;;;;33.87;36.72;96642.28;127909;1090;26536;-84
2021/08/15 09:27:34;;;;;;;9.68;5.88;;;;;;;33.30;37.41;96638.84;127979;1090;45366;-88
2021/08/15 09:30:26;;;;;;;6.83;5.58;;;;;;;33.10;38.06;96637.36;128062;1089;26833;-83
2021/08/15 09:33:06;;;;;;;9.10;5.90;;;;;;;32.98;37.80;96628.56;127977;1089;42403;-81
2021/08/15 09:35:43;;;;;;;11.18;5.98;;;;;;;32.96;37.82;96630.97;128097;1090;24812;-83
2021/08/15 09:38:16;;;;;;;7.43;5.53;;;;;;;32.68;37.79;96628.78;127899;1090;54682;-84
2021/08/15 09:40:51;;;;;;;7.70;5.70;;;;;;;32.53;38.59;96619.28;127939;1090;56430;-84
2021/08/15 09:43:27;;;;;;;10.80;5.83;;;;;;;32.71;39.16;96616.95;127968;1090;32112;-83
2021/08/15 09:46:03;;;;;;;8.90;6.10;;;;;;;32.57;38.84;96622.73;128089;1088;23916;-85
2021/08/15 09:48:37;;;;;;;8.73;6.35;;;;;;;32.34;39.40;96618.84;128054;1090;27068;-82
2021/08/15 09:51:19;;;;;;;11.63;6.00;;;;;;;32.08;40.24;96605.97;127998;1090;65196;-82
2021/08/15 09:54:03;;;;;;;9.38;6.10;;;;;;;31.85;39.48;96606.78;127997;1090;31616;-82
2021/08/15 09:56:39;;;;;;;10.18;6.13;;;;;;;31.63;39.68;96603.58;128029;1089;27018;-81
2021/08/15 09:59:17;;;;;;;8.83;5.88;;;;;;;31.37;40.26;96601.64;128051;1090;47593;-84
2021/08/15 10:01:51;;;;;;;38.00;13.43;;;;;;;31.11;40.98;96603.97;127991;1090;70931;-83
2021/08/15 10:04:24;;;;;;;8.83;6.45;;;;;;;30.95;41.58;96592.82;128016;1090;34670;-83
2021/08/15 10:06:58;;;;;;;9.30;6.30;;;;;;;31.09;41.68;96587.15;128042;1090;25022;-84
2021/08/15 10:09:39;;;;;;;8.15;6.03;;;;;;;31.39;41.48;96596.52;128034;1090;28697;-83
2021/08/15 10:12:11;;;;;;;6.80;5.53;;;;;;;31.73;42.41;96594.44;128067;1090;24942;-82
2021/08/15 10:14:43;;;;;;;10.23;5.63;;;;;;;31.48;40.67;96583.08;127992;1090;26168;-82
2021/08/15 10:17:18;;;;;;;8.43;6.03;;;;;;;31.07;41.41;96592.27;128013;1090;25074;-84
2021/08/15 10:19:55;;;;;;;8.53;5.73;;;;;;;31.08;42.31;96590.30;128179;1090;25887;-83
2021/08/15 10:22:28;;;;;;;9.25;6.10;;;;;;;31.01;42.71;96599.41;127978;1090;25632;-83
2021/08/15 10:25:05;;;;;;;10.00;6.03;;;;;;;31.03;43.16;96600.53;127980;1090;29063;-83
2021/08/15 10:27:50;;;;;;;11.28;6.03;;;;;;;31.13;43.24;96582.41;127989;1090;25486;-82
2021/08/15 10:30:52;;;;;;;9.13;5.63;;;;;;;31.03;43.26;96583.33;127976;1090;24429;-83
2021/08/15 10:33:29;;;;;;;7.93;5.88;;;;;;;30.92;43.08;96578.00;127911;1090;80202;-82
2021/08/15 10:36:24;;;;;;;10.38;6.23;;;;;;;31.02;43.97;96576.31;128010;1090;23623;-83
2021/08/15 10:38:58;;;;;;;8.73;5.40;;;;;;;31.14;43.47;96574.97;128064;1090;27505;-81
2021/08/15 10:41:52;;;;;;;9.98;6.28;;;;;;;31.17;44.45;96565.92;127990;1090;24403;-82
2021/08/15 10:44:24;;;;;;;9.37;5.83;;;;;;;31.24;43.68;96565.83;127972;1090;29551;-82
2021/08/15 10:47:27;;;;;;;10.88;6.23;;;;;;;31.11;44.49;96573.03;127981;1089;29397;-83
2021/08/15 10:50:02;;;;;;;11.35;6.55;;;;;;;30.97;44.36;96568.57;128024;1090;22929;-83
2021/08/15 10:52:39;;;;;;;8.83;5.10;;;;;;;30.99;44.04;96560.71;127961;1090;26509;-83
2021/08/15 10:55:14;;;;;;;8.78;5.90;;;;;;;30.82;44.33;96548.80;128070;1090;23484;-82
2021/08/15 10:57:49;;;;;;;10.65;5.88;;;;;;;30.80;44.91;96547.67;127951;1089;45332;-82
2021/08/15 11:00:47;;;;;;;8.15;6.00;;;;;;;30.91;45.65;96551.03;128130;1090;29092;-83
2021/08/15 11:03:59;;;;;;;9.68;6.13;;;;;;;30.94;45.40;96533.78;128085;1089;50309;-81
2021/08/15 11:06:50;;;;;;;10.80;6.00;;;;;;;30.90;45.22;96528.36;128058;1090;56579;-83
2021/08/15 11:09:22;;;;;;;9.60;5.90;;;;;;;30.62;44.87;96526.80;128100;1090;29636;-82
2021/08/15 11:12:11;;;;;;;7.35;5.25;;;;;;;30.37;44.98;96537.25;128068;1090;35565;-84
2021/08/15 11:15:09;;;;;;;10.23;5.75;;;;;;;30.35;45.02;96545.87;128106;1090;29492;-82
2021/08/15 11:17:41;;;;;;;7.10;5.53;;;;;;;30.49;45.63;96555.86;128059;1089;24226;-81
2021/08/15 11:20:34;;;;;;;8.25;5.38;;;;;;;30.34;45.07;96546.28;128071;1090;51769;-81
2021/08/15 11:23:14;;;;;;;11.80;5.70;;;;;;;30.24;45.51;96566.31;128087;1090;24451;-86
2021/08/15 11:25:47;;;;;;;9.40;5.15;;;;;;;30.13;43.61;96572.70;127985;1090;31900;-85
2021/08/15 11:28:21;;;;;;;8.18;4.90;;;;;;;30.06;44.06;96561.05;128109;1090;27309;-84
2021/08/15 11:30:57;;;;;;;6.88;4.63;;;;;;;30.12;44.17;96562.14;128161;1090;24025;-85
2021/08/15 11:33:29;;;;;;;8.55;5.10;;;;;;;30.22;45.28;96565.95;128050;1089;25980;-83
2021/08/15 11:36:00;;;;;;;7.90;5.53;;;;;;;30.19;45.87;96559.34;128059;1090;45170;-84
2021/08/15 11:38:32;;;;;;;8.08;5.43;;;;;;;30.26;46.05;96559.25;128098;1090;27009;-82
2021/08/15 11:41:03;;;;;;;8.35;6.00;;;;;;;30.21;45.63;96553.46;128114;1090;42251;-81
2021/08/15 11:43:34;;;;;;;8.28;5.70;;;;;;;30.21;46.15;96556.97;128097;1090;27016;-81
2021/08/15 11:46:08;;;;;;;9.13;6.03;;;;;;;30.35;46.13;96545.09;128112;1090;30825;-81
2021/08/15 11:48:39;;;;;;;7.65;5.70;;;;;;;30.42;46.24;96537.59;128169;1090;29181;-85
2021/08/15 11:51:11;;;;;;;10.23;6.73;;;;;;;30.39;46.76;96532.91;128040;1090;31852;-84